sensor_id;sensor_type;location;lat;lon;timestamp;P1;durP1;ratioP1;P2;durP2;ratioP2
65358;SDS011;52491;45.900;6.346;2024-02-04T00:00:09;6.28;;;4.15;;
65358;SDS011;52491;45.900;6.346;2024-02-04T00:02:36;4.63;;;3.42;;
65358;SDS011;52491;45.900;6.346;2024-02-04T00:05:03;4.68;;;3.35;;
65358;SDS011;52491;45.900;6.346;2024-02-04T00:07:28;4.43;;;3.70;;
65358;SDS011;52491;45.900;6.346;2024-02-04T00:09:54;6.82;;;3.65;;
65358;SDS011;52491;45.900;6.346;2024-02-04T00:12:20;5.13;;;3.20;;
65358;SDS011;52491;45.900;6.346;2024-02-04T00:14:46;4.22;;;3.28;;
65358;SDS011;52491;45.900;6.346;2024-02-04T00:17:14;4.20;;;3.13;;
65358;SDS011;52491;45.900;6.346;2024-02-04T00:19:40;4.28;;;3.03;;
65358;SDS011;52491;45.900;6.346;2024-02-04T00:22:06;3.53;;;2.78;;
65358;SDS011;52491;45.900;6.346;2024-02-04T00:24:32;4.22;;;3.35;;
65358;SDS011;52491;45.900;6.346;2024-02-04T00:26:57;4.53;;;3.22;;
65358;SDS011;52491;45.900;6.346;2024-02-04T00:29:23;4.13;;;2.95;;
65358;SDS011;52491;45.900;6.346;2024-02-04T00:31:48;4.18;;;3.10;;
65358;SDS011;52491;45.900;6.346;2024-02-04T00:34:14;3.95;;;3.08;;
65358;SDS011;52491;45.900;6.346;2024-02-04T00:36:39;4.93;;;2.88;;
65358;SDS011;52491;45.900;6.346;2024-02-04T00:39:05;3.47;;;2.88;;
65358;SDS011;52491;45.900;6.346;2024-02-04T00:41:32;3.47;;;2.95;;
65358;SDS011;52491;45.900;6.346;2024-02-04T00:43:58;4.93;;;2.70;;
65358;SDS011;52491;45.900;6.346;2024-02-04T00:46:23;3.92;;;2.40;;
65358;SDS011;52491;45.900;6.346;2024-02-04T00:48:49;4.38;;;2.78;;
65358;SDS011;52491;45.900;6.346;2024-02-04T00:51:14;3.72;;;2.92;;
65358;SDS011;52491;45.900;6.346;2024-02-04T00:53:42;3.90;;;2.75;;
65358;SDS011;52491;45.900;6.346;2024-02-04T00:56:11;3.92;;;2.92;;
65358;SDS011;52491;45.900;6.346;2024-02-04T00:58:37;2.85;;;2.55;;
65358;SDS011;52491;45.900;6.346;2024-02-04T01:01:03;3.70;;;2.90;;
65358;SDS011;52491;45.900;6.346;2024-02-04T01:03:30;3.17;;;2.85;;
65358;SDS011;52491;45.900;6.346;2024-02-04T01:05:56;3.35;;;2.45;;
65358;SDS011;52491;45.900;6.346;2024-02-04T01:08:22;3.05;;;2.35;;
65358;SDS011;52491;45.900;6.346;2024-02-04T01:10:47;4.18;;;3.08;;
65358;SDS011;52491;45.900;6.346;2024-02-04T01:13:13;4.28;;;2.78;;
65358;SDS011;52491;45.900;6.346;2024-02-04T01:15:39;3.90;;;2.97;;
65358;SDS011;52491;45.900;6.346;2024-02-04T01:18:04;5.03;;;2.95;;
65358;SDS011;52491;45.900;6.346;2024-02-04T01:20:30;3.90;;;2.90;;
65358;SDS011;52491;45.900;6.346;2024-02-04T01:22:55;7.40;;;2.63;;
65358;SDS011;52491;45.900;6.346;2024-02-04T01:25:21;4.75;;;2.72;;
65358;SDS011;52491;45.900;6.346;2024-02-04T01:27:46;4.07;;;3.17;;
65358;SDS011;52491;45.900;6.346;2024-02-04T01:30:12;2.65;;;2.25;;
65358;SDS011;52491;45.900;6.346;2024-02-04T01:32:37;3.67;;;2.97;;
65358;SDS011;52491;45.900;6.346;2024-02-04T01:35:03;4.18;;;2.50;;
65358;SDS011;52491;45.900;6.346;2024-02-04T01:37:29;3.47;;;2.58;;
65358;SDS011;52491;45.900;6.346;2024-02-04T01:39:54;3.53;;;2.65;;
65358;SDS011;52491;45.900;6.346;2024-02-04T01:42:20;3.00;;;2.70;;
65358;SDS011;52491;45.900;6.346;2024-02-04T01:44:46;4.68;;;2.65;;
65358;SDS011;52491;45.900;6.346;2024-02-04T01:47:11;2.38;;;2.17;;
65358;SDS011;52491;45.900;6.346;2024-02-04T01:49:37;3.90;;;2.60;;
65358;SDS011;52491;45.900;6.346;2024-02-04T01:52:03;3.72;;;2.88;;
65358;SDS011;52491;45.900;6.346;2024-02-04T01:54:32;3.33;;;2.35;;
65358;SDS011;52491;45.900;6.346;2024-02-04T01:56:58;2.85;;;2.35;;
65358;SDS011;52491;45.900;6.346;2024-02-04T01:59:27;3.22;;;2.47;;
65358;SDS011;52491;45.900;6.346;2024-02-04T02:02:01;3.92;;;2.67;;
65358;SDS011;52491;45.900;6.346;2024-02-04T02:04:27;4.05;;;2.92;;
65358;SDS011;52491;45.900;6.346;2024-02-04T02:06:54;2.63;;;2.25;;
65358;SDS011;52491;45.900;6.346;2024-02-04T02:09:20;2.55;;;2.30;;
65358;SDS011;52491;45.900;6.346;2024-02-04T02:11:47;2.80;;;2.08;;
65358;SDS011;52491;45.900;6.346;2024-02-04T02:14:23;2.80;;;2.22;;
65358;SDS011;52491;45.900;6.346;2024-02-04T02:16:53;3.28;;;2.22;;
65358;SDS011;52491;45.900;6.346;2024-02-04T02:19:31;2.70;;;2.20;;
65358;SDS011;52491;45.900;6.346;2024-02-04T02:22:02;3.10;;;2.28;;
65358;SDS011;52491;45.900;6.346;2024-02-04T02:24:35;2.63;;;2.03;;
65358;SDS011;52491;45.900;6.346;2024-02-04T02:27:04;2.50;;;2.17;;
65358;SDS011;52491;45.900;6.346;2024-02-04T02:29:31;2.47;;;1.98;;
65358;SDS011;52491;45.900;6.346;2024-02-04T02:31:57;2.72;;;1.98;;
65358;SDS011;52491;45.900;6.346;2024-02-04T02:34:24;2.63;;;2.15;;
65358;SDS011;52491;45.900;6.346;2024-02-04T02:36:52;2.42;;;1.90;;
65358;SDS011;52491;45.900;6.346;2024-02-04T02:39:25;1.65;;;1.52;;
65358;SDS011;52491;45.900;6.346;2024-02-04T02:41:57;3.10;;;2.03;;
65358;SDS011;52491;45.900;6.346;2024-02-04T02:44:27;2.45;;;2.25;;
65358;SDS011;52491;45.900;6.346;2024-02-04T02:46:57;2.40;;;1.70;;
65358;SDS011;52491;45.900;6.346;2024-02-04T02:49:24;2.50;;;1.98;;
65358;SDS011;52491;45.900;6.346;2024-02-04T02:51:50;4.35;;;2.38;;
65358;SDS011;52491;45.900;6.346;2024-02-04T02:54:16;2.65;;;2.10;;
65358;SDS011;52491;45.900;6.346;2024-02-04T02:56:41;2.72;;;1.85;;
65358;SDS011;52491;45.900;6.346;2024-02-04T02:59:07;2.33;;;1.80;;
65358;SDS011;52491;45.900;6.346;2024-02-04T03:01:33;3.55;;;2.20;;
65358;SDS011;52491;45.900;6.346;2024-02-04T03:03:58;2.47;;;1.48;;
65358;SDS011;52491;45.900;6.346;2024-02-04T03:06:24;2.88;;;2.30;;
65358;SDS011;52491;45.900;6.346;2024-02-04T03:08:49;2.25;;;1.92;;
65358;SDS011;52491;45.900;6.346;2024-02-04T03:11:15;2.95;;;1.95;;
65358;SDS011;52491;45.900;6.346;2024-02-04T03:13:40;2.78;;;1.70;;
65358;SDS011;52491;45.900;6.346;2024-02-04T03:16:10;2.10;;;1.85;;
65358;SDS011;52491;45.900;6.346;2024-02-04T03:18:38;1.88;;;1.42;;
65358;SDS011;52491;45.900;6.346;2024-02-04T03:21:13;3.83;;;2.08;;
65358;SDS011;52491;45.900;6.346;2024-02-04T03:23:40;2.35;;;1.42;;
65358;SDS011;52491;45.900;6.346;2024-02-04T03:26:07;3.72;;;1.88;;
65358;SDS011;52491;45.900;6.346;2024-02-04T03:28:32;2.08;;;1.73;;
65358;SDS011;52491;45.900;6.346;2024-02-04T03:30:58;2.08;;;1.52;;
65358;SDS011;52491;45.900;6.346;2024-02-04T03:33:23;1.45;;;1.23;;
65358;SDS011;52491;45.900;6.346;2024-02-04T03:35:49;2.25;;;1.73;;
65358;SDS011;52491;45.900;6.346;2024-02-04T03:38:14;2.92;;;1.52;;
65358;SDS011;52491;45.900;6.346;2024-02-04T03:40:40;1.77;;;1.25;;
65358;SDS011;52491;45.900;6.346;2024-02-04T03:43:08;1.60;;;1.40;;
65358;SDS011;52491;45.900;6.346;2024-02-04T03:45:35;2.78;;;1.77;;
65358;SDS011;52491;45.900;6.346;2024-02-04T03:48:00;1.92;;;1.73;;
65358;SDS011;52491;45.900;6.346;2024-02-04T03:50:26;1.80;;;1.40;;
65358;SDS011;52491;45.900;6.346;2024-02-04T03:52:51;3.50;;;1.77;;
65358;SDS011;52491;45.900;6.346;2024-02-04T03:55:18;1.60;;;1.20;;
65358;SDS011;52491;45.900;6.346;2024-02-04T03:57:43;2.80;;;1.95;;
65358;SDS011;52491;45.900;6.346;2024-02-04T04:00:09;1.70;;;1.60;;
65358;SDS011;52491;45.900;6.346;2024-02-04T04:02:35;1.85;;;1.20;;
65358;SDS011;52491;45.900;6.346;2024-02-04T04:05:01;6.38;;;2.08;;
65358;SDS011;52491;45.900;6.346;2024-02-04T04:07:26;2.78;;;1.88;;
65358;SDS011;52491;45.900;6.346;2024-02-04T04:09:52;1.63;;;1.20;;
65358;SDS011;52491;45.900;6.346;2024-02-04T04:12:17;3.20;;;1.67;;
65358;SDS011;52491;45.900;6.346;2024-02-04T04:14:43;1.65;;;1.42;;
65358;SDS011;52491;45.900;6.346;2024-02-04T04:17:08;1.77;;;1.48;;
65358;SDS011;52491;45.900;6.346;2024-02-04T04:19:34;1.60;;;1.30;;
65358;SDS011;52491;45.900;6.346;2024-02-04T04:22:01;1.80;;;1.30;;
65358;SDS011;52491;45.900;6.346;2024-02-04T04:24:27;2.35;;;1.77;;
65358;SDS011;52491;45.900;6.346;2024-02-04T04:26:52;1.50;;;1.38;;
65358;SDS011;52491;45.900;6.346;2024-02-04T04:29:18;1.70;;;1.33;;
65358;SDS011;52491;45.900;6.346;2024-02-04T04:31:44;3.05;;;1.45;;
65358;SDS011;52491;45.900;6.346;2024-02-04T04:34:10;1.80;;;1.20;;
65358;SDS011;52491;45.900;6.346;2024-02-04T04:36:35;1.60;;;1.45;;
65358;SDS011;52491;45.900;6.346;2024-02-04T04:39:01;1.00;;;0.90;;
65358;SDS011;52491;45.900;6.346;2024-02-04T04:41:26;1.30;;;1.05;;
65358;SDS011;52491;45.900;6.346;2024-02-04T04:43:52;1.60;;;1.25;;
65358;SDS011;52491;45.900;6.346;2024-02-04T04:46:17;1.30;;;0.98;;
65358;SDS011;52491;45.900;6.346;2024-02-04T04:48:43;1.40;;;0.93;;
65358;SDS011;52491;45.900;6.346;2024-02-04T04:51:11;2.17;;;1.50;;
65358;SDS011;52491;45.900;6.346;2024-02-04T04:53:37;1.75;;;1.17;;
65358;SDS011;52491;45.900;6.346;2024-02-04T04:56:03;3.03;;;1.33;;
65358;SDS011;52491;45.900;6.346;2024-02-04T04:58:29;1.58;;;1.20;;
65358;SDS011;52491;45.900;6.346;2024-02-04T05:00:55;1.23;;;1.13;;
65358;SDS011;52491;45.900;6.346;2024-02-04T05:03:20;1.70;;;1.17;;
65358;SDS011;52491;45.900;6.346;2024-02-04T05:05:46;1.98;;;1.35;;
65358;SDS011;52491;45.900;6.346;2024-02-04T05:08:13;1.00;;;0.90;;
65358;SDS011;52491;45.900;6.346;2024-02-04T05:10:40;1.33;;;1.23;;
65358;SDS011;52491;45.900;6.346;2024-02-04T05:13:06;1.30;;;1.20;;
65358;SDS011;52491;45.900;6.346;2024-02-04T05:15:32;1.75;;;1.25;;
65358;SDS011;52491;45.900;6.346;2024-02-04T05:17:59;1.60;;;1.40;;
65358;SDS011;52491;45.900;6.346;2024-02-04T05:20:25;1.55;;;1.23;;
65358;SDS011;52491;45.900;6.346;2024-02-04T05:22:51;1.50;;;0.93;;
65358;SDS011;52491;45.900;6.346;2024-02-04T05:25:16;1.38;;;1.17;;
65358;SDS011;52491;45.900;6.346;2024-02-04T05:27:42;1.23;;;1.10;;
65358;SDS011;52491;45.900;6.346;2024-02-04T05:30:07;2.05;;;1.00;;
65358;SDS011;52491;45.900;6.346;2024-02-04T05:32:33;1.48;;;0.90;;
65358;SDS011;52491;45.900;6.346;2024-02-04T05:34:58;3.40;;;1.10;;
65358;SDS011;52491;45.900;6.346;2024-02-04T05:37:24;1.38;;;1.20;;
65358;SDS011;52491;45.900;6.346;2024-02-04T05:39:49;1.60;;;1.13;;
65358;SDS011;52491;45.900;6.346;2024-02-04T05:42:15;2.00;;;1.15;;
65358;SDS011;52491;45.900;6.346;2024-02-04T05:44:40;1.65;;;1.13;;
65358;SDS011;52491;45.900;6.346;2024-02-04T05:47:06;1.52;;;1.10;;
65358;SDS011;52491;45.900;6.346;2024-02-04T05:49:31;2.35;;;1.40;;
65358;SDS011;52491;45.900;6.346;2024-02-04T05:51:57;1.75;;;1.30;;
65358;SDS011;52491;45.900;6.346;2024-02-04T05:54:22;1.98;;;1.20;;
65358;SDS011;52491;45.900;6.346;2024-02-04T05:56:48;1.60;;;1.20;;
65358;SDS011;52491;45.900;6.346;2024-02-04T05:59:13;2.03;;;1.42;;
65358;SDS011;52491;45.900;6.346;2024-02-04T06:01:41;1.45;;;0.95;;
65358;SDS011;52491;45.900;6.346;2024-02-04T06:04:06;1.10;;;0.90;;
65358;SDS011;52491;45.900;6.346;2024-02-04T06:06:32;1.13;;;1.00;;
65358;SDS011;52491;45.900;6.346;2024-02-04T06:08:57;1.95;;;1.40;;
65358;SDS011;52491;45.900;6.346;2024-02-04T06:11:23;2.28;;;1.20;;
65358;SDS011;52491;45.900;6.346;2024-02-04T06:13:49;2.22;;;1.02;;
65358;SDS011;52491;45.900;6.346;2024-02-04T06:16:14;1.23;;;0.90;;
65358;SDS011;52491;45.900;6.346;2024-02-04T06:18:40;1.63;;;1.20;;
65358;SDS011;52491;45.900;6.346;2024-02-04T06:21:06;1.35;;;1.00;;
65358;SDS011;52491;45.900;6.346;2024-02-04T06:23:32;1.20;;;1.10;;
65358;SDS011;52491;45.900;6.346;2024-02-04T06:25:58;1.10;;;1.00;;
65358;SDS011;52491;45.900;6.346;2024-02-04T06:28:24;1.35;;;1.10;;
65358;SDS011;52491;45.900;6.346;2024-02-04T06:30:50;1.70;;;1.35;;
65358;SDS011;52491;45.900;6.346;2024-02-04T06:33:16;1.10;;;1.00;;
65358;SDS011;52491;45.900;6.346;2024-02-04T06:35:41;3.83;;;1.27;;
65358;SDS011;52491;45.900;6.346;2024-02-04T06:38:07;1.23;;;1.08;;
65358;SDS011;52491;45.900;6.346;2024-02-04T06:40:33;1.85;;;0.98;;
65358;SDS011;52491;45.900;6.346;2024-02-04T06:42:58;1.23;;;1.10;;
65358;SDS011;52491;45.900;6.346;2024-02-04T06:45:24;1.60;;;1.27;;
65358;SDS011;52491;45.900;6.346;2024-02-04T06:47:49;1.38;;;1.20;;
65358;SDS011;52491;45.900;6.346;2024-02-04T06:50:15;2.25;;;1.15;;
65358;SDS011;52491;45.900;6.346;2024-02-04T06:52:42;1.42;;;1.15;;
65358;SDS011;52491;45.900;6.346;2024-02-04T06:55:11;1.00;;;0.90;;
65358;SDS011;52491;45.900;6.346;2024-02-04T06:57:36;1.30;;;1.10;;
65358;SDS011;52491;45.900;6.346;2024-02-04T07:00:02;2.75;;;1.33;;
65358;SDS011;52491;45.900;6.346;2024-02-04T07:02:31;4.70;;;1.38;;
65358;SDS011;52491;45.900;6.346;2024-02-04T07:04:56;1.92;;;1.40;;
65358;SDS011;52491;45.900;6.346;2024-02-04T07:07:22;3.03;;;1.55;;
65358;SDS011;52491;45.900;6.346;2024-02-04T07:09:48;1.50;;;1.08;;
65358;SDS011;52491;45.900;6.346;2024-02-04T07:12:13;1.50;;;1.10;;
65358;SDS011;52491;45.900;6.346;2024-02-04T07:14:38;1.75;;;1.42;;
65358;SDS011;52491;45.900;6.346;2024-02-04T07:17:04;1.48;;;1.30;;
65358;SDS011;52491;45.900;6.346;2024-02-04T07:19:29;2.22;;;1.38;;
65358;SDS011;52491;45.900;6.346;2024-02-04T07:21:55;2.05;;;1.50;;
65358;SDS011;52491;45.900;6.346;2024-02-04T07:24:21;1.67;;;1.25;;
65358;SDS011;52491;45.900;6.346;2024-02-04T07:26:46;1.92;;;1.17;;
65358;SDS011;52491;45.900;6.346;2024-02-04T07:29:12;1.88;;;1.50;;
65358;SDS011;52491;45.900;6.346;2024-02-04T07:31:38;1.92;;;1.27;;
65358;SDS011;52491;45.900;6.346;2024-02-04T07:34:04;1.45;;;1.20;;
65358;SDS011;52491;45.900;6.346;2024-02-04T07:36:30;1.50;;;1.30;;
65358;SDS011;52491;45.900;6.346;2024-02-04T07:38:56;1.85;;;1.23;;
65358;SDS011;52491;45.900;6.346;2024-02-04T07:41:21;1.42;;;1.20;;
65358;SDS011;52491;45.900;6.346;2024-02-04T07:43:47;2.33;;;1.70;;
65358;SDS011;52491;45.900;6.346;2024-02-04T07:46:13;2.03;;;1.35;;
65358;SDS011;52491;45.900;6.346;2024-02-04T07:48:39;3.45;;;1.58;;
65358;SDS011;52491;45.900;6.346;2024-02-04T07:51:04;3.90;;;1.40;;
65358;SDS011;52491;45.900;6.346;2024-02-04T07:53:30;1.73;;;1.30;;
65358;SDS011;52491;45.900;6.346;2024-02-04T07:55:55;1.63;;;1.30;;
65358;SDS011;52491;45.900;6.346;2024-02-04T07:58:21;2.08;;;1.58;;
65358;SDS011;52491;45.900;6.346;2024-02-04T08:00:46;1.40;;;1.30;;
65358;SDS011;52491;45.900;6.346;2024-02-04T08:03:12;2.55;;;1.55;;
65358;SDS011;52491;45.900;6.346;2024-02-04T08:05:37;2.08;;;1.60;;
65358;SDS011;52491;45.900;6.346;2024-02-04T08:08:04;3.75;;;1.20;;
65358;SDS011;52491;45.900;6.346;2024-02-04T08:10:30;1.20;;;1.10;;
65358;SDS011;52491;45.900;6.346;2024-02-04T08:12:55;1.42;;;1.00;;
65358;SDS011;52491;45.900;6.346;2024-02-04T08:15:21;4.05;;;1.30;;
65358;SDS011;52491;45.900;6.346;2024-02-04T08:17:46;3.45;;;1.63;;
65358;SDS011;52491;45.900;6.346;2024-02-04T08:20:12;2.92;;;1.60;;
65358;SDS011;52491;45.900;6.346;2024-02-04T08:22:37;2.63;;;1.70;;
65358;SDS011;52491;45.900;6.346;2024-02-04T08:25:06;1.48;;;1.38;;
65358;SDS011;52491;45.900;6.346;2024-02-04T08:27:32;2.20;;;1.52;;
65358;SDS011;52491;45.900;6.346;2024-02-04T08:29:57;4.07;;;1.88;;
65358;SDS011;52491;45.900;6.346;2024-02-04T08:32:23;3.78;;;1.50;;
65358;SDS011;52491;45.900;6.346;2024-02-04T08:34:49;1.55;;;1.30;;
65358;SDS011;52491;45.900;6.346;2024-02-04T08:37:14;2.45;;;1.38;;
65358;SDS011;52491;45.900;6.346;2024-02-04T08:39:40;6.00;;;3.05;;
65358;SDS011;52491;45.900;6.346;2024-02-04T08:42:05;7.00;;;4.47;;
65358;SDS011;52491;45.900;6.346;2024-02-04T08:44:31;5.95;;;4.43;;
65358;SDS011;52491;45.900;6.346;2024-02-04T08:46:56;7.88;;;4.95;;
65358;SDS011;52491;45.900;6.346;2024-02-04T08:49:22;7.93;;;4.78;;
65358;SDS011;52491;45.900;6.346;2024-02-04T08:51:47;10.18;;;5.68;;
65358;SDS011;52491;45.900;6.346;2024-02-04T08:54:13;7.40;;;5.18;;
65358;SDS011;52491;45.900;6.346;2024-02-04T08:56:39;12.27;;;6.25;;
65358;SDS011;52491;45.900;6.346;2024-02-04T08:59:05;12.85;;;8.00;;
65358;SDS011;52491;45.900;6.346;2024-02-04T09:01:31;11.95;;;8.50;;
65358;SDS011;52491;45.900;6.346;2024-02-04T09:03:56;14.38;;;8.93;;
65358;SDS011;52491;45.900;6.346;2024-02-04T09:06:22;14.45;;;9.55;;
65358;SDS011;52491;45.900;6.346;2024-02-04T09:08:48;17.58;;;10.95;;
65358;SDS011;52491;45.900;6.346;2024-02-04T09:11:13;14.98;;;9.95;;
65358;SDS011;52491;45.900;6.346;2024-02-04T09:13:44;17.20;;;12.57;;
65358;SDS011;52491;45.900;6.346;2024-02-04T09:16:10;18.70;;;11.43;;
65358;SDS011;52491;45.900;6.346;2024-02-04T09:18:36;21.02;;;11.73;;
65358;SDS011;52491;45.900;6.346;2024-02-04T09:21:02;20.35;;;11.43;;
65358;SDS011;52491;45.900;6.346;2024-02-04T09:23:28;22.42;;;12.35;;
65358;SDS011;52491;45.900;6.346;2024-02-04T09:25:53;27.35;;;14.07;;
65358;SDS011;52491;45.900;6.346;2024-02-04T09:28:19;17.33;;;11.10;;
65358;SDS011;52491;45.900;6.346;2024-02-04T09:30:45;16.38;;;10.52;;
65358;SDS011;52491;45.900;6.346;2024-02-04T09:33:11;15.73;;;10.88;;
65358;SDS011;52491;45.900;6.346;2024-02-04T09:35:37;27.52;;;11.93;;
65358;SDS011;52491;45.900;6.346;2024-02-04T09:38:02;27.38;;;11.18;;
65358;SDS011;52491;45.900;6.346;2024-02-04T09:40:28;22.92;;;10.00;;
65358;SDS011;52491;45.900;6.346;2024-02-04T09:42:54;22.38;;;9.40;;
65358;SDS011;52491;45.900;6.346;2024-02-04T09:45:21;19.73;;;8.80;;
65358;SDS011;52491;45.900;6.346;2024-02-04T09:47:47;19.38;;;8.95;;
65358;SDS011;52491;45.900;6.346;2024-02-04T09:50:15;12.88;;;7.80;;
65358;SDS011;52491;45.900;6.346;2024-02-04T09:52:40;13.20;;;7.65;;
65358;SDS011;52491;45.900;6.346;2024-02-04T09:55:12;19.50;;;8.73;;
65358;SDS011;52491;45.900;6.346;2024-02-04T09:57:40;14.88;;;8.75;;
65358;SDS011;52491;45.900;6.346;2024-02-04T10:00:06;10.65;;;6.90;;
65358;SDS011;52491;45.900;6.346;2024-02-04T10:02:33;9.15;;;6.28;;
65358;SDS011;52491;45.900;6.346;2024-02-04T10:04:59;11.43;;;6.68;;
65358;SDS011;52491;45.900;6.346;2024-02-04T10:07:24;16.08;;;7.18;;
65358;SDS011;52491;45.900;6.346;2024-02-04T10:09:50;12.65;;;6.32;;
65358;SDS011;52491;45.900;6.346;2024-02-04T10:12:16;12.70;;;7.03;;
65358;SDS011;52491;45.900;6.346;2024-02-04T10:14:42;11.52;;;6.00;;
65358;SDS011;52491;45.900;6.346;2024-02-04T10:17:08;8.68;;;5.43;;
65358;SDS011;52491;45.900;6.346;2024-02-04T10:19:34;13.60;;;6.55;;
65358;SDS011;52491;45.900;6.346;2024-02-04T10:22:02;9.23;;;5.68;;
65358;SDS011;52491;45.900;6.346;2024-02-04T10:24:29;9.13;;;5.30;;
65358;SDS011;52491;45.900;6.346;2024-02-04T10:26:55;11.40;;;5.07;;
65358;SDS011;52491;45.900;6.346;2024-02-04T10:29:22;13.02;;;5.28;;
65358;SDS011;52491;45.900;6.346;2024-02-04T10:31:49;25.88;;;5.07;;
65358;SDS011;52491;45.900;6.346;2024-02-04T10:34:28;11.98;;;6.07;;
65358;SDS011;52491;45.900;6.346;2024-02-04T10:36:55;12.95;;;5.07;;
65358;SDS011;52491;45.900;6.346;2024-02-04T10:39:21;12.65;;;5.20;;
65358;SDS011;52491;45.900;6.346;2024-02-04T10:41:48;13.40;;;4.95;;
65358;SDS011;52491;45.900;6.346;2024-02-04T10:44:20;7.75;;;4.38;;
65358;SDS011;52491;45.900;6.346;2024-02-04T10:46:47;8.65;;;4.80;;
65358;SDS011;52491;45.900;6.346;2024-02-04T10:49:14;9.43;;;4.40;;
65358;SDS011;52491;45.900;6.346;2024-02-04T10:51:42;10.25;;;4.75;;
65358;SDS011;52491;45.900;6.346;2024-02-04T10:54:19;8.02;;;4.07;;
65358;SDS011;52491;45.900;6.346;2024-02-04T10:56:52;10.70;;;4.63;;
65358;SDS011;52491;45.900;6.346;2024-02-04T10:59:26;11.73;;;4.68;;
65358;SDS011;52491;45.900;6.346;2024-02-04T11:01:55;6.45;;;3.63;;
65358;SDS011;52491;45.900;6.346;2024-02-04T11:04:22;6.78;;;4.25;;
65358;SDS011;52491;45.900;6.346;2024-02-04T11:06:49;9.95;;;3.85;;
65358;SDS011;52491;45.900;6.346;2024-02-04T11:09:17;9.95;;;3.45;;
65358;SDS011;52491;45.900;6.346;2024-02-04T11:11:43;8.45;;;4.35;;
65358;SDS011;52491;45.900;6.346;2024-02-04T11:14:11;12.73;;;4.13;;
65358;SDS011;52491;45.900;6.346;2024-02-04T11:19:43;4.22;;;3.22;;
65358;SDS011;52491;45.900;6.346;2024-02-04T11:27:46;12.85;;;3.63;;
65358;SDS011;52491;45.900;6.346;2024-02-04T11:30:13;14.68;;;3.53;;
65358;SDS011;52491;45.900;6.346;2024-02-04T11:32:40;15.23;;;4.18;;
65358;SDS011;52491;45.900;6.346;2024-02-04T11:35:06;9.02;;;3.55;;
65358;SDS011;52491;45.900;6.346;2024-02-04T11:37:33;10.07;;;3.35;;
65358;SDS011;52491;45.900;6.346;2024-02-04T11:39:59;7.25;;;3.38;;
65358;SDS011;52491;45.900;6.346;2024-02-04T11:42:24;10.88;;;3.05;;
65358;SDS011;52491;45.900;6.346;2024-02-04T11:44:50;7.95;;;3.00;;
65358;SDS011;52491;45.900;6.346;2024-02-04T11:47:33;6.85;;;2.40;;
65358;SDS011;52491;45.900;6.346;2024-02-04T11:49:58;5.43;;;2.63;;
65358;SDS011;52491;45.900;6.346;2024-02-04T11:52:27;12.50;;;3.00;;
65358;SDS011;52491;45.900;6.346;2024-02-04T11:54:53;5.15;;;3.15;;
65358;SDS011;52491;45.900;6.346;2024-02-04T11:57:19;6.35;;;2.50;;
65358;SDS011;52491;45.900;6.346;2024-02-04T11:59:45;3.60;;;2.47;;
65358;SDS011;52491;45.900;6.346;2024-02-04T12:02:12;4.70;;;2.35;;
65358;SDS011;52491;45.900;6.346;2024-02-04T12:04:40;5.80;;;2.30;;
65358;SDS011;52491;45.900;6.346;2024-02-04T12:07:07;7.85;;;2.90;;
65358;SDS011;52491;45.900;6.346;2024-02-04T12:09:34;3.65;;;2.97;;
65358;SDS011;52491;45.900;6.346;2024-02-04T12:12:00;12.20;;;6.57;;
65358;SDS011;52491;45.900;6.346;2024-02-04T12:14:28;13.85;;;7.78;;
65358;SDS011;52491;45.900;6.346;2024-02-04T12:16:54;18.00;;;10.20;;
65358;SDS011;52491;45.900;6.346;2024-02-04T12:19:22;20.38;;;11.13;;
65358;SDS011;52491;45.900;6.346;2024-02-04T12:21:48;20.85;;;12.25;;
65358;SDS011;52491;45.900;6.346;2024-02-04T12:24:14;14.23;;;11.18;;
65358;SDS011;52491;45.900;6.346;2024-02-04T12:26:40;18.75;;;13.32;;
65358;SDS011;52491;45.900;6.346;2024-02-04T12:29:06;18.90;;;12.98;;
65358;SDS011;52491;45.900;6.346;2024-02-04T12:31:32;24.40;;;14.43;;
65358;SDS011;52491;45.900;6.346;2024-02-04T12:33:59;18.67;;;12.23;;
65358;SDS011;52491;45.900;6.346;2024-02-04T12:36:29;21.67;;;13.23;;
65358;SDS011;52491;45.900;6.346;2024-02-04T12:38:57;15.55;;;11.55;;
65358;SDS011;52491;45.900;6.346;2024-02-04T12:41:25;13.90;;;11.68;;
65358;SDS011;52491;45.900;6.346;2024-02-04T12:43:53;15.68;;;11.73;;
65358;SDS011;52491;45.900;6.346;2024-02-04T12:46:20;15.95;;;10.45;;
65358;SDS011;52491;45.900;6.346;2024-02-04T12:48:53;14.65;;;9.73;;
65358;SDS011;52491;45.900;6.346;2024-02-04T12:51:26;13.52;;;10.00;;
65358;SDS011;52491;45.900;6.346;2024-02-04T12:54:06;11.35;;;9.45;;
65358;SDS011;52491;45.900;6.346;2024-02-04T12:56:45;13.30;;;9.57;;
65358;SDS011;52491;45.900;6.346;2024-02-04T12:59:24;12.73;;;9.52;;
65358;SDS011;52491;45.900;6.346;2024-02-04T13:02:03;12.23;;;9.23;;
65358;SDS011;52491;45.900;6.346;2024-02-04T13:04:38;9.45;;;7.20;;
65358;SDS011;52491;45.900;6.346;2024-02-04T13:07:12;11.73;;;6.63;;
65358;SDS011;52491;45.900;6.346;2024-02-04T13:09:42;7.85;;;6.50;;
65358;SDS011;52491;45.900;6.346;2024-02-04T13:12:09;16.35;;;6.85;;
65358;SDS011;52491;45.900;6.346;2024-02-04T13:14:35;14.57;;;5.30;;
65358;SDS011;52491;45.900;6.346;2024-02-04T13:17:04;11.95;;;6.45;;
65358;SDS011;52491;45.900;6.346;2024-02-04T13:19:33;9.48;;;5.05;;
65358;SDS011;52491;45.900;6.346;2024-02-04T13:22:03;8.82;;;5.28;;
65358;SDS011;52491;45.900;6.346;2024-02-04T13:24:34;9.13;;;5.07;;
65358;SDS011;52491;45.900;6.346;2024-02-04T13:27:00;11.77;;;5.47;;
65358;SDS011;52491;45.900;6.346;2024-02-04T13:29:26;8.38;;;5.82;;
65358;SDS011;52491;45.900;6.346;2024-02-04T13:31:52;11.00;;;5.95;;
65358;SDS011;52491;45.900;6.346;2024-02-04T13:34:18;6.95;;;5.15;;
65358;SDS011;52491;45.900;6.346;2024-02-04T13:36:44;6.75;;;5.05;;
65358;SDS011;52491;45.900;6.346;2024-02-04T13:39:10;8.82;;;5.18;;
65358;SDS011;52491;45.900;6.346;2024-02-04T13:41:37;7.72;;;4.38;;
65358;SDS011;52491;45.900;6.346;2024-02-04T13:44:06;6.65;;;4.93;;
65358;SDS011;52491;45.900;6.346;2024-02-04T13:46:32;9.90;;;5.63;;
65358;SDS011;52491;45.900;6.346;2024-02-04T13:48:58;7.07;;;4.90;;
65358;SDS011;52491;45.900;6.346;2024-02-04T13:51:24;5.90;;;4.63;;
65358;SDS011;52491;45.900;6.346;2024-02-04T13:53:49;4.75;;;3.88;;
65358;SDS011;52491;45.900;6.346;2024-02-04T13:56:15;4.88;;;3.88;;
65358;SDS011;52491;45.900;6.346;2024-02-04T13:58:44;7.88;;;5.28;;
65358;SDS011;52491;45.900;6.346;2024-02-04T14:01:09;8.23;;;4.65;;
65358;SDS011;52491;45.900;6.346;2024-02-04T14:03:35;7.72;;;4.60;;
65358;SDS011;52491;45.900;6.346;2024-02-04T14:06:01;4.13;;;3.75;;
65358;SDS011;52491;45.900;6.346;2024-02-04T14:08:28;6.30;;;4.25;;
65358;SDS011;52491;45.900;6.346;2024-02-04T14:10:54;4.45;;;4.05;;
65358;SDS011;52491;45.900;6.346;2024-02-04T14:13:20;6.50;;;4.18;;
65358;SDS011;52491;45.900;6.346;2024-02-04T14:15:45;6.57;;;4.93;;
65358;SDS011;52491;45.900;6.346;2024-02-04T14:18:11;6.80;;;4.75;;
65358;SDS011;52491;45.900;6.346;2024-02-04T14:20:36;7.78;;;4.72;;
65358;SDS011;52491;45.900;6.346;2024-02-04T14:23:02;5.18;;;3.88;;
65358;SDS011;52491;45.900;6.346;2024-02-04T14:25:28;4.97;;;3.47;;
65358;SDS011;52491;45.900;6.346;2024-02-04T14:27:53;4.55;;;3.92;;
65358;SDS011;52491;45.900;6.346;2024-02-04T14:30:19;4.43;;;3.28;;
65358;SDS011;52491;45.900;6.346;2024-02-04T14:32:45;5.88;;;3.70;;
65358;SDS011;52491;45.900;6.346;2024-02-04T14:35:10;4.40;;;3.63;;
65358;SDS011;52491;45.900;6.346;2024-02-04T14:37:36;6.10;;;3.58;;
65358;SDS011;52491;45.900;6.346;2024-02-04T14:40:04;5.00;;;3.58;;
65358;SDS011;52491;45.900;6.346;2024-02-04T14:42:31;3.10;;;2.85;;
65358;SDS011;52491;45.900;6.346;2024-02-04T14:44:57;4.60;;;4.10;;
65358;SDS011;52491;45.900;6.346;2024-02-04T14:47:25;5.43;;;3.80;;